sensor_id;sensor_type;location;lat;lon;timestamp;P1;durP1;ratioP1;P2;durP2;ratioP2
77748;SDS011;66938;52.084;5.228;2023-04-25T00:00:47;15.2;;;5.9;;
77748;SDS011;66938;52.084;5.228;2023-04-25T00:02:24;15.9;;;6.2;;
77748;SDS011;66938;52.084;5.228;2023-04-25T00:05:37;15.6;;;5.6;;
77748;SDS011;66938;52.084;5.228;2023-04-25T00:07:13;16.9;;;5.8;;
77748;SDS011;66938;52.084;5.228;2023-04-25T00:08:49;17.5;;;6.0;;
77748;SDS011;66938;52.084;5.228;2023-04-25T00:12:01;16.7;;;6.3;;
77748;SDS011;66938;52.084;5.228;2023-04-25T00:13:38;18.11;;;5.8;;
77748;SDS011;66938;52.084;5.228;2023-04-25T00:15:14;19.11;;;6.5;;
77748;SDS011;66938;52.084;5.228;2023-04-25T00:18:26;15.9;;;6.0;;
77748;SDS011;66938;52.084;5.228;2023-04-25T00:20:02;17.0;;;6.3;;
77748;SDS011;66938;52.084;5.228;2023-04-25T00:21:38;16.2;;;6.1;;
77748;SDS011;66938;52.084;5.228;2023-04-25T00:24:51;16.8;;;6.2;;
77748;SDS011;66938;52.084;5.228;2023-04-25T00:26:28;16.2;;;6.2;;
77748;SDS011;66938;52.084;5.228;2023-04-25T00:28:05;16.7;;;6.2;;
77748;SDS011;66938;52.084;5.228;2023-04-25T00:29:41;17.2;;;6.7;;
77748;SDS011;66938;52.084;5.228;2023-04-25T00:32:53;17.61;;;6.1;;
77748;SDS011;66938;52.084;5.228;2023-04-25T00:34:29;15.7;;;5.0;;
77748;SDS011;66938;52.084;5.228;2023-04-25T00:36:06;15.0;;;5.6;;
77748;SDS011;66938;52.084;5.228;2023-04-25T00:39:19;15.8;;;6.0;;
77748;SDS011;66938;52.084;5.228;2023-04-25T00:40:56;14.9;;;6.0;;
77748;SDS011;66938;52.084;5.228;2023-04-25T00:42:32;13.8;;;5.9;;
77748;SDS011;66938;52.084;5.228;2023-04-25T00:45:45;14.5;;;5.3;;
77748;SDS011;66938;52.084;5.228;2023-04-25T00:47:23;18.5;;;6.7;;
77748;SDS011;66938;52.084;5.228;2023-04-25T00:49:00;17.7;;;5.8;;
77748;SDS011;66938;52.084;5.228;2023-04-25T00:50:36;15.5;;;5.7;;
77748;SDS011;66938;52.084;5.228;2023-04-25T00:53:50;13.9;;;5.5;;
77748;SDS011;66938;52.084;5.228;2023-04-25T00:55:27;16.0;;;5.7;;
77748;SDS011;66938;52.084;5.228;2023-04-25T00:57:03;16.8;;;6.2;;
77748;SDS011;66938;52.084;5.228;2023-04-25T01:00:17;15.0;;;5.6;;
77748;SDS011;66938;52.084;5.228;2023-04-25T01:01:53;17.61;;;6.3;;
77748;SDS011;66938;52.084;5.228;2023-04-25T01:03:30;18.2;;;6.4;;
77748;SDS011;66938;52.084;5.228;2023-04-25T01:05:09;15.2;;;5.9;;
77748;SDS011;66938;52.084;5.228;2023-04-25T01:08:21;17.8;;;6.5;;
77748;SDS011;66938;52.084;5.228;2023-04-25T01:09:59;17.5;;;5.9;;
77748;SDS011;66938;52.084;5.228;2023-04-25T01:11:35;17.7;;;6.3;;
77748;SDS011;66938;52.084;5.228;2023-04-25T01:14:47;18.0;;;6.0;;
77748;SDS011;66938;52.084;5.228;2023-04-25T01:16:24;18.7;;;6.2;;
77748;SDS011;66938;52.084;5.228;2023-04-25T01:18:00;18.2;;;6.4;;
77748;SDS011;66938;52.084;5.228;2023-04-25T01:21:13;15.8;;;5.7;;
77748;SDS011;66938;52.084;5.228;2023-04-25T01:22:49;15.1;;;6.1;;
77748;SDS011;66938;52.084;5.228;2023-04-25T01:24:26;16.9;;;6.6;;
77748;SDS011;66938;52.084;5.228;2023-04-25T01:26:03;14.3;;;6.4;;
77748;SDS011;66938;52.084;5.228;2023-04-25T01:29:18;15.7;;;6.5;;
77748;SDS011;66938;52.084;5.228;2023-04-25T01:30:55;20.3;;;7.1;;
77748;SDS011;66938;52.084;5.228;2023-04-25T01:32:32;16.4;;;6.4;;
77748;SDS011;66938;52.084;5.228;2023-04-25T01:35:45;17.3;;;7.0;;
77748;SDS011;66938;52.084;5.228;2023-04-25T01:37:22;16.3;;;7.2;;
77748;SDS011;66938;52.084;5.228;2023-04-25T01:38:58;16.4;;;6.7;;
77748;SDS011;66938;52.084;5.228;2023-04-25T01:42:16;15.2;;;6.6;;
77748;SDS011;66938;52.084;5.228;2023-04-25T01:43:54;18.5;;;7.4;;
77748;SDS011;66938;52.084;5.228;2023-04-25T01:45:30;17.7;;;7.1;;
77748;SDS011;66938;52.084;5.228;2023-04-25T01:47:06;16.4;;;6.8;;
77748;SDS011;66938;52.084;5.228;2023-04-25T01:50:18;15.3;;;7.3;;
77748;SDS011;66938;52.084;5.228;2023-04-25T01:51:54;16.8;;;7.0;;
77748;SDS011;66938;52.084;5.228;2023-04-25T01:53:30;18.7;;;7.1;;
77748;SDS011;66938;52.084;5.228;2023-04-25T01:56:49;17.61;;;6.6;;
77748;SDS011;66938;52.084;5.228;2023-04-25T01:58:26;16.5;;;6.8;;
77748;SDS011;66938;52.084;5.228;2023-04-25T02:00:03;19.2;;;6.7;;
77748;SDS011;66938;52.084;5.228;2023-04-25T02:01:42;19.11;;;7.1;;
77748;SDS011;66938;52.084;5.228;2023-04-25T02:04:55;16.0;;;6.9;;
77748;SDS011;66938;52.084;5.228;2023-04-25T02:06:30;18.11;;;7.0;;
77748;SDS011;66938;52.084;5.228;2023-04-25T02:08:07;16.2;;;7.1;;
77748;SDS011;66938;52.084;5.228;2023-04-25T02:11:21;16.3;;;6.9;;
77748;SDS011;66938;52.084;5.228;2023-04-25T02:12:57;18.41;;;6.9;;
77748;SDS011;66938;52.084;5.228;2023-04-25T02:14:33;16.0;;;6.8;;
77748;SDS011;66938;52.084;5.228;2023-04-25T02:17:45;22.3;;;7.3;;
77748;SDS011;66938;52.084;5.228;2023-04-25T02:19:21;18.2;;;7.2;;
77748;SDS011;66938;52.084;5.228;2023-04-25T02:20:58;16.0;;;7.0;;
77748;SDS011;66938;52.084;5.228;2023-04-25T02:22:35;18.8;;;7.8;;
77748;SDS011;66938;52.084;5.228;2023-04-25T02:25:47;17.5;;;7.2;;
77748;SDS011;66938;52.084;5.228;2023-04-25T02:27:24;16.4;;;7.1;;
77748;SDS011;66938;52.084;5.228;2023-04-25T02:29:01;15.6;;;6.9;;
77748;SDS011;66938;52.084;5.228;2023-04-25T02:32:12;15.5;;;7.0;;
77748;SDS011;66938;52.084;5.228;2023-04-25T02:33:49;19.7;;;7.5;;
77748;SDS011;66938;52.084;5.228;2023-04-25T02:35:26;16.61;;;6.7;;
77748;SDS011;66938;52.084;5.228;2023-04-25T02:38:38;18.2;;;7.0;;
77748;SDS011;66938;52.084;5.228;2023-04-25T02:40:15;15.7;;;6.9;;
77748;SDS011;66938;52.084;5.228;2023-04-25T02:41:51;17.2;;;6.7;;
77748;SDS011;66938;52.084;5.228;2023-04-25T02:43:27;19.3;;;7.2;;
77748;SDS011;66938;52.084;5.228;2023-04-25T02:46:41;15.9;;;6.7;;
77748;SDS011;66938;52.084;5.228;2023-04-25T02:48:17;17.5;;;6.8;;
77748;SDS011;66938;52.084;5.228;2023-04-25T02:49:53;16.7;;;6.6;;
77748;SDS011;66938;52.084;5.228;2023-04-25T02:53:05;16.61;;;6.9;;
77748;SDS011;66938;52.084;5.228;2023-04-25T02:54:41;17.61;;;6.9;;
77748;SDS011;66938;52.084;5.228;2023-04-25T02:56:17;16.9;;;6.6;;
77748;SDS011;66938;52.084;5.228;2023-04-25T02:59:30;15.6;;;6.1;;
77748;SDS011;66938;52.084;5.228;2023-04-25T03:01:06;16.8;;;6.8;;
77748;SDS011;66938;52.084;5.228;2023-04-25T03:02:42;16.11;;;6.2;;
77748;SDS011;66938;52.084;5.228;2023-04-25T03:05:54;15.2;;;6.5;;
77748;SDS011;66938;52.084;5.228;2023-04-25T03:07:30;17.7;;;6.2;;
77748;SDS011;66938;52.084;5.228;2023-04-25T03:09:06;16.4;;;5.9;;
77748;SDS011;66938;52.084;5.228;2023-04-25T03:10:42;16.3;;;6.4;;
77748;SDS011;66938;52.084;5.228;2023-04-25T03:13:56;14.6;;;5.4;;
77748;SDS011;66938;52.084;5.228;2023-04-25T03:15:32;16.0;;;6.2;;
77748;SDS011;66938;52.084;5.228;2023-04-25T03:17:08;15.1;;;6.4;;
77748;SDS011;66938;52.084;5.228;2023-04-25T03:20:20;15.6;;;6.1;;
77748;SDS011;66938;52.084;5.228;2023-04-25T03:21:56;15.2;;;5.8;;
77748;SDS011;66938;52.084;5.228;2023-04-25T03:23:32;16.8;;;5.6;;
77748;SDS011;66938;52.084;5.228;2023-04-25T03:26:45;14.8;;;5.8;;
77748;SDS011;66938;52.084;5.228;2023-04-25T03:28:21;16.2;;;6.4;;
77748;SDS011;66938;52.084;5.228;2023-04-25T03:29:58;13.7;;;5.9;;
77748;SDS011;66938;52.084;5.228;2023-04-25T03:31:34;13.1;;;5.7;;
77748;SDS011;66938;52.084;5.228;2023-04-25T03:34:46;17.0;;;6.5;;
77748;SDS011;66938;52.084;5.228;2023-04-25T03:36:22;11.2;;;5.3;;
77748;SDS011;66938;52.084;5.228;2023-04-25T03:37:59;13.6;;;5.2;;
77748;SDS011;66938;52.084;5.228;2023-04-25T03:41:12;9.31;;;3.7;;
77748;SDS011;66938;52.084;5.228;2023-04-25T03:42:48;9.1;;;3.4;;
77748;SDS011;66938;52.084;5.228;2023-04-25T03:44:24;8.5;;;3.5;;
77748;SDS011;66938;52.084;5.228;2023-04-25T03:47:36;10.5;;;3.5;;
77748;SDS011;66938;52.084;5.228;2023-04-25T03:49:12;9.81;;;3.5;;
77748;SDS011;66938;52.084;5.228;2023-04-25T03:50:49;10.1;;;3.4;;
77748;SDS011;66938;52.084;5.228;2023-04-25T03:54:01;10.3;;;3.2;;
77748;SDS011;66938;52.084;5.228;2023-04-25T03:55:37;8.2;;;3.4;;
77748;SDS011;66938;52.084;5.228;2023-04-25T03:57:13;10.8;;;3.8;;
77748;SDS011;66938;52.084;5.228;2023-04-25T03:58:49;9.71;;;3.4;;
77748;SDS011;66938;52.084;5.228;2023-04-25T04:02:01;9.9;;;3.5;;
77748;SDS011;66938;52.084;5.228;2023-04-25T04:03:37;11.0;;;3.6;;
77748;SDS011;66938;52.084;5.228;2023-04-25T04:05:14;9.71;;;3.6;;
77748;SDS011;66938;52.084;5.228;2023-04-25T04:08:26;9.31;;;3.5;;
77748;SDS011;66938;52.084;5.228;2023-04-25T04:10:02;12.0;;;3.3;;
77748;SDS011;66938;52.084;5.228;2023-04-25T04:11:38;9.81;;;3.6;;
77748;SDS011;66938;52.084;5.228;2023-04-25T04:14:50;10.0;;;3.8;;
77748;SDS011;66938;52.084;5.228;2023-04-25T04:16:27;8.5;;;3.2;;
77748;SDS011;66938;52.084;5.228;2023-04-25T04:18:03;10.9;;;3.7;;
77748;SDS011;66938;52.084;5.228;2023-04-25T04:21:15;10.21;;;3.5;;
77748;SDS011;66938;52.084;5.228;2023-04-25T04:22:51;10.9;;;3.4;;
77748;SDS011;66938;52.084;5.228;2023-04-25T04:24:27;9.0;;;3.3;;
77748;SDS011;66938;52.084;5.228;2023-04-25T04:26:03;10.5;;;3.5;;
77748;SDS011;66938;52.084;5.228;2023-04-25T04:29:16;11.2;;;3.8;;
77748;SDS011;66938;52.084;5.228;2023-04-25T04:30:53;10.5;;;3.5;;
77748;SDS011;66938;52.084;5.228;2023-04-25T04:32:29;8.6;;;3.3;;
77748;SDS011;66938;52.084;5.228;2023-04-25T04:35:41;8.81;;;3.5;;
77748;SDS011;66938;52.084;5.228;2023-04-25T04:37:18;9.81;;;3.2;;
77748;SDS011;66938;52.084;5.228;2023-04-25T04:38:53;9.71;;;3.2;;
77748;SDS011;66938;52.084;5.228;2023-04-25T04:42:06;10.9;;;3.5;;
77748;SDS011;66938;52.084;5.228;2023-04-25T04:43:42;11.2;;;3.3;;
77748;SDS011;66938;52.084;5.228;2023-04-25T04:45:19;12.3;;;3.5;;
77748;SDS011;66938;52.084;5.228;2023-04-25T04:46:55;9.1;;;3.4;;
77748;SDS011;66938;52.084;5.228;2023-04-25T04:50:09;11.6;;;3.6;;
77748;SDS011;66938;52.084;5.228;2023-04-25T04:51:46;13.2;;;3.6;;
77748;SDS011;66938;52.084;5.228;2023-04-25T04:53:22;9.81;;;3.4;;
77748;SDS011;66938;52.084;5.228;2023-04-25T04:56:35;11.6;;;3.8;;
77748;SDS011;66938;52.084;5.228;2023-04-25T04:58:11;9.4;;;3.2;;
77748;SDS011;66938;52.084;5.228;2023-04-25T04:59:47;12.0;;;3.3;;
77748;SDS011;66938;52.084;5.228;2023-04-25T05:03:00;10.6;;;3.6;;
77748;SDS011;66938;52.084;5.228;2023-04-25T05:04:36;10.3;;;3.2;;
77748;SDS011;66938;52.084;5.228;2023-04-25T05:06:12;11.8;;;3.8;;
77748;SDS011;66938;52.084;5.228;2023-04-25T05:07:48;10.6;;;3.5;;
77748;SDS011;66938;52.084;5.228;2023-04-25T05:11:02;13.2;;;3.7;;
77748;SDS011;66938;52.084;5.228;2023-04-25T05:12:38;12.0;;;3.7;;
77748;SDS011;66938;52.084;5.228;2023-04-25T05:14:14;11.1;;;3.1;;
77748;SDS011;66938;52.084;5.228;2023-04-25T05:17:26;12.0;;;3.4;;
77748;SDS011;66938;52.084;5.228;2023-04-25T05:19:03;9.81;;;3.3;;
77748;SDS011;66938;52.084;5.228;2023-04-25T05:20:39;12.0;;;3.6;;
77748;SDS011;66938;52.084;5.228;2023-04-25T05:23:51;11.4;;;3.7;;
77748;SDS011;66938;52.084;5.228;2023-04-25T05:25:27;9.81;;;3.3;;
77748;SDS011;66938;52.084;5.228;2023-04-25T05:27:03;10.3;;;3.5;;
77748;SDS011;66938;52.084;5.228;2023-04-25T05:30:15;9.4;;;3.5;;
77748;SDS011;66938;52.084;5.228;2023-04-25T05:31:52;9.1;;;3.0;;
77748;SDS011;66938;52.084;5.228;2023-04-25T05:33:28;10.0;;;3.0;;
77748;SDS011;66938;52.084;5.228;2023-04-25T05:35:04;10.6;;;3.0;;
77748;SDS011;66938;52.084;5.228;2023-04-25T05:38:17;8.6;;;2.7;;
77748;SDS011;66938;52.084;5.228;2023-04-25T05:39:53;8.9;;;3.1;;
77748;SDS011;66938;52.084;5.228;2023-04-25T05:41:29;7.5;;;2.8;;
77748;SDS011;66938;52.084;5.228;2023-04-25T05:44:42;10.1;;;3.0;;
77748;SDS011;66938;52.084;5.228;2023-04-25T05:46:18;8.0;;;2.8;;
77748;SDS011;66938;52.084;5.228;2023-04-25T05:47:54;7.6;;;2.8;;
77748;SDS011;66938;52.084;5.228;2023-04-25T05:51:06;9.21;;;2.8;;
77748;SDS011;66938;52.084;5.228;2023-04-25T05:52:43;7.0;;;2.5;;
77748;SDS011;66938;52.084;5.228;2023-04-25T05:54:20;7.3;;;2.5;;
77748;SDS011;66938;52.084;5.228;2023-04-25T05:55:55;10.6;;;3.0;;
77748;SDS011;66938;52.084;5.228;2023-04-25T05:59:07;8.4;;;2.6;;
77748;SDS011;66938;52.084;5.228;2023-04-25T06:00:43;8.71;;;3.0;;
77748;SDS011;66938;52.084;5.228;2023-04-25T06:02:20;7.9;;;2.7;;
77748;SDS011;66938;52.084;5.228;2023-04-25T06:05:33;10.9;;;3.2;;
77748;SDS011;66938;52.084;5.228;2023-04-25T06:07:09;9.5;;;2.8;;
77748;SDS011;66938;52.084;5.228;2023-04-25T06:08:45;8.6;;;3.0;;
77748;SDS011;66938;52.084;5.228;2023-04-25T06:11:57;8.5;;;3.1;;
77748;SDS011;66938;52.084;5.228;2023-04-25T06:13:33;10.0;;;3.3;;
77748;SDS011;66938;52.084;5.228;2023-04-25T06:15:10;8.71;;;2.7;;
77748;SDS011;66938;52.084;5.228;2023-04-25T06:18:22;12.9;;;3.0;;
77748;SDS011;66938;52.084;5.228;2023-04-25T06:19:58;7.9;;;2.9;;
77748;SDS011;66938;52.084;5.228;2023-04-25T06:21:34;8.0;;;2.6;;
77748;SDS011;66938;52.084;5.228;2023-04-25T06:23:10;10.5;;;2.9;;
77748;SDS011;66938;52.084;5.228;2023-04-25T06:26:23;9.5;;;2.8;;
77748;SDS011;66938;52.084;5.228;2023-04-25T06:28:00;10.5;;;2.7;;
77748;SDS011;66938;52.084;5.228;2023-04-25T06:29:36;9.4;;;2.7;;
77748;SDS011;66938;52.084;5.228;2023-04-25T06:32:48;10.4;;;3.0;;
77748;SDS011;66938;52.084;5.228;2023-04-25T06:34:24;8.6;;;2.6;;
77748;SDS011;66938;52.084;5.228;2023-04-25T06:36:00;9.5;;;3.2;;
77748;SDS011;66938;52.084;5.228;2023-04-25T06:39:13;9.21;;;2.8;;
77748;SDS011;66938;52.084;5.228;2023-04-25T06:40:49;10.8;;;2.9;;
77748;SDS011;66938;52.084;5.228;2023-04-25T06:42:25;13.3;;;3.3;;
77748;SDS011;66938;52.084;5.228;2023-04-25T06:44:01;9.71;;;3.0;;
77748;SDS011;66938;52.084;5.228;2023-04-25T06:47:14;9.71;;;3.0;;
77748;SDS011;66938;52.084;5.228;2023-04-25T06:48:51;8.31;;;3.2;;
77748;SDS011;66938;52.084;5.228;2023-04-25T06:50:26;10.0;;;3.0;;
77748;SDS011;66938;52.084;5.228;2023-04-25T06:53:39;10.7;;;3.2;;
77748;SDS011;66938;52.084;5.228;2023-04-25T06:55:16;9.5;;;3.2;;
77748;SDS011;66938;52.084;5.228;2023-04-25T06:56:52;12.1;;;3.6;;
77748;SDS011;66938;52.084;5.228;2023-04-25T07:00:06;12.6;;;3.2;;
77748;SDS011;66938;52.084;5.228;2023-04-25T07:01:44;9.71;;;3.0;;
77748;SDS011;66938;52.084;5.228;2023-04-25T07:03:20;11.3;;;3.1;;
77748;SDS011;66938;52.084;5.228;2023-04-25T07:04:56;9.81;;;2.8;;
77748;SDS011;66938;52.084;5.228;2023-04-25T07:08:09;10.3;;;3.2;;
77748;SDS011;66938;52.084;5.228;2023-04-25T07:09:45;10.9;;;3.2;;
77748;SDS011;66938;52.084;5.228;2023-04-25T07:11:21;10.8;;;3.0;;
77748;SDS011;66938;52.084;5.228;2023-04-25T07:14:33;10.0;;;2.9;;
77748;SDS011;66938;52.084;5.228;2023-04-25T07:16:10;11.9;;;3.5;;
77748;SDS011;66938;52.084;5.228;2023-04-25T07:17:46;11.2;;;3.2;;
77748;SDS011;66938;52.084;5.228;2023-04-25T07:20:58;12.4;;;3.2;;
77748;SDS011;66938;52.084;5.228;2023-04-25T07:22:34;11.6;;;3.0;;
77748;SDS011;66938;52.084;5.228;2023-04-25T07:24:10;8.9;;;2.8;;
77748;SDS011;66938;52.084;5.228;2023-04-25T07:27:22;9.31;;;2.9;;
77748;SDS011;66938;52.084;5.228;2023-04-25T07:28:58;11.2;;;3.0;;
77748;SDS011;66938;52.084;5.228;2023-04-25T07:30:35;8.2;;;2.7;;
77748;SDS011;66938;52.084;5.228;2023-04-25T07:32:11;10.7;;;3.0;;
77748;SDS011;66938;52.084;5.228;2023-04-25T07:35:23;9.0;;;2.9;;
77748;SDS011;66938;52.084;5.228;2023-04-25T07:36:59;12.0;;;3.2;;
77748;SDS011;66938;52.084;5.228;2023-04-25T07:38:35;9.1;;;2.5;;
77748;SDS011;66938;52.084;5.228;2023-04-25T07:41:49;10.7;;;2.9;;
77748;SDS011;66938;52.084;5.228;2023-04-25T07:43:25;8.81;;;2.8;;
77748;SDS011;66938;52.084;5.228;2023-04-25T07:45:01;9.5;;;2.6;;
77748;SDS011;66938;52.084;5.228;2023-04-25T07:48:16;10.0;;;2.8;;
77748;SDS011;66938;52.084;5.228;2023-04-25T07:49:53;9.31;;;2.8;;
77748;SDS011;66938;52.084;5.228;2023-04-25T07:51:29;11.3;;;3.0;;
77748;SDS011;66938;52.084;5.228;2023-04-25T07:53:05;9.4;;;2.9;;
77748;SDS011;66938;52.084;5.228;2023-04-25T07:56:18;8.71;;;2.5;;
77748;SDS011;66938;52.084;5.228;2023-04-25T07:57:54;8.1;;;2.4;;
77748;SDS011;66938;52.084;5.228;2023-04-25T07:59:30;7.7;;;2.21;;
77748;SDS011;66938;52.084;5.228;2023-04-25T08:02:42;8.4;;;2.31;;
77748;SDS011;66938;52.084;5.228;2023-04-25T08:04:18;8.1;;;2.21;;
77748;SDS011;66938;52.084;5.228;2023-04-25T08:05:54;7.3;;;2.31;;
77748;SDS011;66938;52.084;5.228;2023-04-25T08:09:07;7.5;;;2.0;;
77748;SDS011;66938;52.084;5.228;2023-04-25T08:10:43;9.6;;;2.4;;
77748;SDS011;66938;52.084;5.228;2023-04-25T08:12:19;10.0;;;2.5;;
77748;SDS011;66938;52.084;5.228;2023-04-25T08:15:31;6.7;;;2.21;;
77748;SDS011;66938;52.084;5.228;2023-04-25T08:17:07;8.1;;;2.21;;
77748;SDS011;66938;52.084;5.228;2023-04-25T08:18:44;8.31;;;2.31;;
77748;SDS011;66938;52.084;5.228;2023-04-25T08:20:21;7.8;;;2.4;;
77748;SDS011;66938;52.084;5.228;2023-04-25T08:23:33;8.1;;;2.21;;
77748;SDS011;66938;52.084;5.228;2023-04-25T08:25:09;8.6;;;2.31;;
77748;SDS011;66938;52.084;5.228;2023-04-25T08:26:45;7.5;;;2.6;;
77748;SDS011;66938;52.084;5.228;2023-04-25T08:29:57;6.2;;;2.0;;
77748;SDS011;66938;52.084;5.228;2023-04-25T08:31:33;7.9;;;2.5;;
77748;SDS011;66938;52.084;5.228;2023-04-25T08:33:10;11.0;;;3.2;;
77748;SDS011;66938;52.084;5.228;2023-04-25T08:36:22;9.9;;;2.5;;
77748;SDS011;66938;52.084;5.228;2023-04-25T08:37:58;8.0;;;2.5;;
77748;SDS011;66938;52.084;5.228;2023-04-25T08:39:34;8.71;;;2.5;;
77748;SDS011;66938;52.084;5.228;2023-04-25T08:41:10;7.1;;;2.7;;
77748;SDS011;66938;52.084;5.228;2023-04-25T08:44:25;6.5;;;2.4;;
77748;SDS011;66938;52.084;5.228;2023-04-25T08:46:02;7.3;;;2.4;;
77748;SDS011;66938;52.084;5.228;2023-04-25T08:47:38;8.31;;;2.4;;
77748;SDS011;66938;52.084;5.228;2023-04-25T08:50:53;9.21;;;2.7;;
77748;SDS011;66938;52.084;5.228;2023-04-25T08:52:34;7.1;;;2.5;;
77748;SDS011;66938;52.084;5.228;2023-04-25T08:54:13;9.5;;;2.5;;
77748;SDS011;66938;52.084;5.228;2023-04-25T08:55:50;8.2;;;2.1;;
77748;SDS011;66938;52.084;5.228;2023-04-25T08:59:07;8.9;;;2.4;;
77748;SDS011;66938;52.084;5.228;2023-04-25T09:00:43;8.4;;;2.31;;
77748;SDS011;66938;52.084;5.228;2023-04-25T09:02:21;7.9;;;2.4;;
77748;SDS011;66938;52.084;5.228;2023-04-25T09:05:33;7.3;;;2.21;;
77748;SDS011;66938;52.084;5.228;2023-04-25T09:07:10;6.7;;;2.31;;
77748;SDS011;66938;52.084;5.228;2023-04-25T09:08:49;5.6;;;1.6;;
77748;SDS011;66938;52.084;5.228;2023-04-25T09:10:26;6.6;;;1.8;;
77748;SDS011;66938;52.084;5.228;2023-04-25T09:13:40;6.8;;;2.21;;
77748;SDS011;66938;52.084;5.228;2023-04-25T09:15:16;6.9;;;1.9;;
77748;SDS011;66938;52.084;5.228;2023-04-25T09:17:00;6.1;;;1.6;;
77748;SDS011;66938;52.084;5.228;2023-04-25T09:20:13;6.0;;;1.6;;
77748;SDS011;66938;52.084;5.228;2023-04-25T09:21:50;5.2;;;1.5;;
77748;SDS011;66938;52.084;5.228;2023-04-25T09:23:26;6.0;;;1.9;;
77748;SDS011;66938;52.084;5.228;2023-04-25T09:26:44;5.9;;;1.5;;
77748;SDS011;66938;52.084;5.228;2023-04-25T09:28:23;5.7;;;1.7;;
77748;SDS011;66938;52.084;5.228;2023-04-25T09:30:00;4.3;;;1.5;;
77748;SDS011;66938;52.084;5.228;2023-04-25T09:31:36;6.2;;;1.5;;
77748;SDS011;66938;52.084;5.228;2023-04-25T09:34:50;6.2;;;1.5;;
77748;SDS011;66938;52.084;5.228;2023-04-25T09:36:29;5.4;;;1.7;;
77748;SDS011;66938;52.084;5.228;2023-04-25T09:38:07;6.4;;;1.7;;
77748;SDS011;66938;52.084;5.228;2023-04-25T09:39:44;6.9;;;2.4;;
77748;SDS011;66938;52.084;5.228;2023-04-25T09:42:59;6.6;;;2.1;;
77748;SDS011;66938;52.084;5.228;2023-04-25T09:44:36;8.0;;;2.0;;
77748;SDS011;66938;52.084;5.228;2023-04-25T09:46:12;8.31;;;1.9;;
77748;SDS011;66938;52.084;5.228;2023-04-25T09:49:25;7.1;;;2.1;;
77748;SDS011;66938;52.084;5.228;2023-04-25T09:51:03;7.6;;;2.0;;
77748;SDS011;66938;52.084;5.228;2023-04-25T09:52:42;5.2;;;1.8;;
77748;SDS011;66938;52.084;5.228;2023-04-25T09:55:55;5.2;;;1.8;;
77748;SDS011;66938;52.084;5.228;2023-04-25T09:57:32;6.3;;;1.9;;
77748;SDS011;66938;52.084;5.228;2023-04-25T09:59:09;8.1;;;2.0;;
77748;SDS011;66938;52.084;5.228;2023-04-25T10:00:46;6.5;;;2.1;;
77748;SDS011;66938;52.084;5.228;2023-04-25T10:04:03;7.4;;;2.21;;
77748;SDS011;66938;52.084;5.228;2023-04-25T10:05:42;5.7;;;1.9;;
77748;SDS011;66938;52.084;5.228;2023-04-25T10:07:19;6.8;;;2.31;;
77748;SDS011;66938;52.084;5.228;2023-04-25T10:10:34;6.6;;;1.9;;
77748;SDS011;66938;52.084;5.228;2023-04-25T10:12:12;7.6;;;2.21;;
77748;SDS011;66938;52.084;5.228;2023-04-25T10:13:48;6.1;;;2.1;;
77748;SDS011;66938;52.084;5.228;2023-04-25T10:15:26;6.3;;;2.1;;
77748;SDS011;66938;52.084;5.228;2023-04-25T10:18:39;7.5;;;2.1;;
77748;SDS011;66938;52.084;5.228;2023-04-25T10:20:15;7.9;;;2.0;;
77748;SDS011;66938;52.084;5.228;2023-04-25T10:21:52;7.0;;;2.1;;
77748;SDS011;66938;52.084;5.228;2023-04-25T10:25:11;5.9;;;1.9;;
77748;SDS011;66938;52.084;5.228;2023-04-25T10:26:48;6.1;;;1.9;;
77748;SDS011;66938;52.084;5.228;2023-04-25T10:28:26;6.7;;;2.0;;
77748;SDS011;66938;52.084;5.228;2023-04-25T10:30:02;5.5;;;1.6;;
77748;SDS011;66938;52.084;5.228;2023-04-25T10:33:28;6.6;;;1.9;;
77748;SDS011;66938;52.084;5.228;2023-04-25T10:35:11;6.4;;;1.7;;
77748;SDS011;66938;52.084;5.228;2023-04-25T10:36:50;4.8;;;1.6;;
77748;SDS011;66938;52.084;5.228;2023-04-25T10:38:27;6.4;;;1.8;;
77748;SDS011;66938;52.084;5.228;2023-04-25T10:41:45;5.5;;;1.8;;
77748;SDS011;66938;52.084;5.228;2023-04-25T10:43:38;7.3;;;2.21;;
77748;SDS011;66938;52.084;5.228;2023-04-25T10:45:15;7.9;;;1.8;;
77748;SDS011;66938;52.084;5.228;2023-04-25T10:46:51;5.9;;;1.9;;
77748;SDS011;66938;52.084;5.228;2023-04-25T10:50:05;6.5;;;1.9;;
77748;SDS011;66938;52.084;5.228;2023-04-25T10:51:43;5.11;;;1.5;;
77748;SDS011;66938;52.084;5.228;2023-04-25T10:53:19;6.3;;;1.6;;
77748;SDS011;66938;52.084;5.228;2023-04-25T10:56:41;5.3;;;1.6;;
77748;SDS011;66938;52.084;5.228;2023-04-25T10:58:20;4.61;;;1.5;;
77748;SDS011;66938;52.084;5.228;2023-04-25T11:00:00;4.61;;;1.4;;
77748;SDS011;66938;52.084;5.228;2023-04-25T11:01:41;4.61;;;1.6;;
77748;SDS011;66938;52.084;5.228;2023-04-25T11:04:58;6.1;;;1.9;;
77748;SDS011;66938;52.084;5.228;2023-04-25T11:06:40;5.6;;;1.9;;
77748;SDS011;66938;52.084;5.228;2023-04-25T11:08:36;5.0;;;1.7;;
77748;SDS011;66938;52.084;5.228;2023-04-25T11:10:26;7.5;;;2.1;;
77748;SDS011;66938;52.084;5.228;2023-04-25T11:12:03;5.8;;;1.7;;
77748;SDS011;66938;52.084;5.228;2023-04-25T11:15:16;6.7;;;1.9;;
77748;SDS011;66938;52.084;5.228;2023-04-25T11:16:53;7.0;;;2.0;;
77748;SDS011;66938;52.084;5.228;2023-04-25T11:18:29;6.1;;;1.9;;
77748;SDS011;66938;52.084;5.228;2023-04-25T11:21:43;6.3;;;1.9;;
77748;SDS011;66938;52.084;5.228;2023-04-25T11:23:19;5.5;;;1.8;;
77748;SDS011;66938;52.084;5.228;2023-04-25T11:24:55;5.2;;;1.7;;
77748;SDS011;66938;52.084;5.228;2023-04-25T11:26:31;6.4;;;1.8;;
77748;SDS011;66938;52.084;5.228;2023-04-25T11:29:43;4.91;;;1.5;;
77748;SDS011;66938;52.084;5.228;2023-04-25T11:31:20;5.6;;;1.6;;
77748;SDS011;66938;52.084;5.228;2023-04-25T11:32:57;4.61;;;1.5;;
77748;SDS011;66938;52.084;5.228;2023-04-25T11:36:10;4.61;;;1.5;;
77748;SDS011;66938;52.084;5.228;2023-04-25T11:37:46;5.0;;;1.5;;
77748;SDS011;66938;52.084;5.228;2023-04-25T11:39:23;4.2;;;1.6;;
77748;SDS011;66938;52.084;5.228;2023-04-25T11:42:37;4.8;;;1.6;;
77748;SDS011;66938;52.084;5.228;2023-04-25T11:44:15;5.5;;;1.6;;
77748;SDS011;66938;52.084;5.228;2023-04-25T11:45:53;5.8;;;1.5;;
77748;SDS011;66938;52.084;5.228;2023-04-25T11:47:29;4.5;;;1.5;;
77748;SDS011;66938;52.084;5.228;2023-04-25T11:50:41;4.41;;;1.6;;
77748;SDS011;66938;52.084;5.228;2023-04-25T11:52:17;5.0;;;1.4;;
77748;SDS011;66938;52.084;5.228;2023-04-25T11:53:53;4.61;;;1.5;;
77748;SDS011;66938;52.084;5.228;2023-04-25T11:57:06;4.1;;;1.7;;
77748;SDS011;66938;52.084;5.228;2023-04-25T11:58:57;5.8;;;1.6;;
77748;SDS011;66938;52.084;5.228;2023-04-25T12:00:37;6.3;;;1.8;;
77748;SDS011;66938;52.084;5.228;2023-04-25T12:02:24;4.7;;;1.5;;
77748;SDS011;66938;52.084;5.228;2023-04-25T12:05:54;4.1;;;1.4;;
77748;SDS011;66938;52.084;5.228;2023-04-25T12:07:38;3.8;;;1.4;;
77748;SDS011;66938;52.084;5.228;2023-04-25T12:09:16;4.1;;;1.4;;
77748;SDS011;66938;52.084;5.228;2023-04-25T12:10:55;3.8;;;1.3;;
77748;SDS011;66938;52.084;5.228;2023-04-25T12:12:32;2.8;;;1.11;;
77748;SDS011;66938;52.084;5.228;2023-04-25T12:15:44;3.7;;;1.11;;
77748;SDS011;66938;52.084;5.228;2023-04-25T12:17:20;4.1;;;1.2;;
77748;SDS011;66938;52.084;5.228;2023-04-25T12:18:58;3.8;;;1.4;;
77748;SDS011;66938;52.084;5.228;2023-04-25T12:22:18;5.0;;;1.2;;
77748;SDS011;66938;52.084;5.228;2023-04-25T12:23:56;4.3;;;1.5;;
77748;SDS011;66938;52.084;5.228;2023-04-25T12:25:33;4.0;;;1.3;;
77748;SDS011;66938;52.084;5.228;2023-04-25T12:27:13;4.3;;;1.4;;
77748;SDS011;66938;52.084;5.228;2023-04-25T12:30:27;4.8;;;1.2;;
77748;SDS011;66938;52.084;5.228;2023-04-25T12:32:03;3.4;;;1.3;;
77748;SDS011;66938;52.084;5.228;2023-04-25T12:33:39;4.3;;;1.4;;
77748;SDS011;66938;52.084;5.228;2023-04-25T12:36:52;5.2;;;1.5;;
77748;SDS011;66938;52.084;5.228;2023-04-25T12:38:29;4.61;;;1.4;;
77748;SDS011;66938;52.084;5.228;2023-04-25T12:40:07;3.7;;;1.2;;
77748;SDS011;66938;52.084;5.228;2023-04-25T12:41:44;4.91;;;1.6;;
77748;SDS011;66938;52.084;5.228;2023-04-25T12:44:57;5.0;;;1.6;;
77748;SDS011;66938;52.084;5.228;2023-04-25T12:46:33;8.4;;;5.3;;
77748;SDS011;66938;52.084;5.228;2023-04-25T12:48:10;5.5;;;2.6;;
77748;SDS011;66938;52.084;5.228;2023-04-25T12:51:22;6.2;;;2.31;;